Time;durP1;ratioP1;P1;durP2;ratioP2;P2;SDS_P1;SDS_P2;PMS_P1;PMS_P2;Temp;Humidity;BMP_temperature;BMP_pressure;BME280_temperature;BME280_humidity;BME280_pressure;Samples;Min_cycle;Max_cycle;Signal;HPM_P1;HPM_P2
2023/01/17 00:02:23;;;;;;;17.03;11.57;;;;;;;5.82;100.00;98404.07;1395068;88;21253;-79
2023/01/17 00:10:25;;;;;;;15.97;10.67;;;;;;;5.82;100.00;98407.52;1549009;88;21238;-80
2023/01/17 00:12:56;;;;;;;;;;;;;;;5.81;100.00;98399.32;1392914;88;22208;-80
2023/01/17 00:15:25;;;;;;;16.40;10.70;;;;;;;5.78;100.00;98394.88;1392432;89;20237;-80
2023/01/17 00:17:53;;;;;;;14.37;9.67;;;;;;;5.72;100.00;98386.36;1392634;88;21253;-81
2023/01/17 00:26:12;;;;;;;18.90;10.33;;;;;;;5.59;100.00;98398.19;1555069;88;21120;-82
2023/01/17 01:36:01;;;;;;;21.17;12.60;;;;;;;4.24;100.00;98346.05;1395292;88;21372;-83
2023/01/17 01:38:28;;;;;;;17.07;10.63;;;;;;;4.22;100.00;98345.38;1395160;88;22133;-82
2023/01/17 01:40:56;;;;;;;14.07;9.80;;;;;;;4.24;100.00;98330.34;1395448;88;21231;-82
2023/01/17 01:43:49;;;;;;;14.37;9.60;;;;;;;4.22;100.00;98338.83;1394638;88;21201;-84
2023/01/17 01:46:31;;;;;;;17.40;8.93;;;;;;;4.21;100.00;98335.89;1420272;88;21533;-83
2023/01/17 01:49:01;;;;;;;;;;;;;;;4.19;100.00;98338.66;1555338;88;22074;-81
2023/01/17 01:51:42;;;;;;;15.07;10.43;;;;;;;4.17;100.00;98334.09;1390472;89;20290;-79
2023/01/17 01:54:15;;;;;;;15.77;10.33;;;;;;;4.15;100.00;98333.91;1553620;89;21201;-81
2023/01/17 01:56:43;;;;;;;20.73;12.83;;;;;;;4.07;100.00;98335.50;1389114;90;21268;-80
2023/01/17 01:59:14;;;;;;;16.63;11.23;;;;;;;4.06;100.00;98336.48;1392816;88;21341;-82
2023/01/17 02:01:42;;;;;;;16.33;11.17;;;;;;;4.02;100.00;98331.22;1389094;88;22204;-84
2023/01/17 02:04:11;;;;;;;15.57;10.73;;;;;;;4.01;100.00;98327.47;1393533;88;21327;-84
2023/01/17 02:06:46;;;;;;;15.90;10.63;;;;;;;3.99;100.00;98321.56;1398104;89;21349;-84
2023/01/17 02:09:16;;;;;;;17.47;11.67;;;;;;;3.98;100.00;98308.97;1394469;88;21415;-83
2023/01/17 02:11:46;;;;;;;16.67;11.23;;;;;;;3.94;100.00;98304.19;1390560;88;21379;-86
2023/01/17 02:14:18;;;;;;;18.87;11.03;;;;;;;3.94;100.00;98299.80;1391257;88;21477;-86
2023/01/17 02:17:10;;;;;;;19.07;12.03;;;;;;;3.95;100.00;98293.58;1391167;88;21460;-82
2023/01/17 02:20:16;;;;;;;18.50;10.97;;;;;;;3.94;100.00;98266.23;1553013;88;22030;-86
2023/01/17 02:23:13;;;;;;;16.50;11.27;;;;;;;3.94;100.00;98268.86;1553025;88;21186;-84
2023/01/17 02:26:11;;;;;;;31.97;18.63;;;;;;;3.94;100.00;98269.70;1394840;88;21209;-78
2023/01/17 02:29:14;;;;;;;50.20;28.40;;;;;;;3.96;100.00;98273.45;1547194;88;21268;-80
2023/01/17 02:31:52;;;;;;;36.83;23.50;;;;;;;3.97;100.00;98269.84;1520740;88;21304;-80
2023/01/17 02:34:43;;;;;;;31.60;21.47;;;;;;;3.99;100.00;98270.52;1389588;89;21297;-79
2023/01/17 02:37:19;;;;;;;27.17;18.73;;;;;;;4.01;100.00;98277.23;1552683;89;21441;-80
2023/01/17 02:40:00;;;;;;;23.60;15.63;;;;;;;4.04;100.00;98269.06;1547457;88;21290;-78
2023/01/17 02:42:39;;;;;;;22.47;15.77;;;;;;;4.06;100.00;98275.47;1552877;88;21304;-79
2023/01/17 02:45:07;;;;;;;21.00;12.53;;;;;;;4.07;100.00;98274.48;1521815;88;21267;-80
2023/01/17 02:47:35;;;;;;;20.07;13.27;;;;;;;4.11;100.00;98276.28;1554023;88;21297;-80
2023/01/17 02:50:16;;;;;;;17.60;11.60;;;;;;;4.15;100.00;98281.55;1393903;88;21238;-81
2023/01/17 02:53:01;;;;;;;19.73;13.53;;;;;;;4.16;100.00;98280.56;1389727;88;21468;-82
2023/01/17 02:55:58;;;;;;;17.83;12.63;;;;;;;4.18;100.00;98273.38;1507547;89;22304;-81
2023/01/17 02:59:02;;;;;;;19.10;12.63;;;;;;;4.21;100.00;98270.44;1391941;90;21298;-82
2023/01/17 03:01:40;;;;;;;16.20;11.13;;;;;;;4.23;100.00;98275.84;1400030;88;22097;-82
2023/01/17 03:04:29;;;;;;;17.87;11.70;;;;;;;4.26;100.00;98273.40;1552931;88;22179;-80
2023/01/17 03:07:02;;;;;;;14.63;10.20;;;;;;;4.28;100.00;98277.97;1390882;88;21385;-81
2023/01/17 03:09:31;;;;;;;22.30;13.97;;;;;;;4.29;100.00;98267.84;1377973;90;21282;-85
2023/01/17 03:11:59;;;;;;;18.23;11.27;;;;;;;4.30;100.00;98265.05;1391320;89;21318;-80
2023/01/17 03:14:27;;;;;;;19.13;11.20;;;;;;;4.30;100.00;98260.30;1393292;88;21247;-84
2023/01/17 03:16:55;;;;;;;16.97;10.80;;;;;;;4.31;100.00;98251.45;1555659;88;21267;-83
2023/01/17 03:19:22;;;;;;;18.43;12.90;;;;;;;4.32;100.00;98241.33;1393732;88;21253;-80
2023/01/17 03:21:49;;;;;;;15.20;11.27;;;;;;;4.31;100.00;98244.91;1393952;88;21464;-83
2023/01/17 03:24:16;;;;;;;19.70;12.50;;;;;;;4.30;100.00;98244.59;1399284;89;21430;-82
2023/01/17 03:26:44;;;;;;;16.70;10.83;;;;;;;4.28;100.00;98240.00;1393830;88;21260;-82
2023/01/17 03:29:11;;;;;;;21.10;12.30;;;;;;;4.27;100.00;98235.75;1393497;89;21422;-81
2023/01/17 03:31:38;;;;;;;15.63;10.97;;;;;;;4.28;100.00;98240.00;1393648;88;21325;-80
2023/01/17 03:34:05;;;;;;;17.10;11.40;;;;;;;4.26;100.00;98231.01;1394106;88;21253;-82
2023/01/17 03:36:32;;;;;;;16.00;10.90;;;;;;;4.26;100.00;98230.20;1393720;88;21208;-85
2023/01/17 03:39:01;;;;;;;20.37;11.83;;;;;;;4.27;100.00;98230.52;1381742;89;21201;-82
2023/01/17 03:41:28;;;;;;;17.83;10.90;;;;;;;4.25;100.00;98236.39;1392308;88;21304;-84
2023/01/17 03:43:55;;;;;;;16.57;10.97;;;;;;;4.25;100.00;98235.89;1393909;89;22089;-84
2023/01/17 03:46:26;;;;;;;19.40;12.30;;;;;;;4.25;100.00;98237.70;1399802;88;21363;-82
2023/01/17 03:48:54;;;;;;;15.65;11.12;;;;;;;4.28;100.00;98237.38;1390707;88;21194;-84
2023/01/17 03:54:00;;;;;;;21.23;12.00;;;;;;;4.34;100.00;98224.13;1495678;85;27767;-83
2023/01/17 03:56:26;;;;;;;21.53;13.17;;;;;;;4.28;100.00;98222.48;1469172;87;21567;-85
2023/01/17 03:58:57;;;;;;;17.27;12.43;;;;;;;4.27;100.00;98212.19;1473339;87;21470;-84
2023/01/17 04:01:24;;;;;;;21.97;13.13;;;;;;;4.26;100.00;98223.65;1471516;87;22139;-83
2023/01/17 04:03:50;;;;;;;20.53;13.23;;;;;;;4.22;100.00;98224.93;1397922;88;22426;-85
2023/01/17 04:06:19;;;;;;;19.67;12.37;;;;;;;4.19;100.00;98231.80;1396310;88;21406;-79
2023/01/17 04:08:45;;;;;;;19.97;12.77;;;;;;;4.14;100.00;98227.03;1477026;87;22293;-79
2023/01/17 04:11:11;;;;;;;17.63;11.97;;;;;;;4.12;100.00;98230.81;1468563;87;21575;-80
2023/01/17 04:13:37;;;;;;;17.80;12.30;;;;;;;4.10;100.00;98227.53;1477138;87;21413;-80
2023/01/17 04:16:04;;;;;;;16.53;11.30;;;;;;;4.12;100.00;98222.96;1477780;87;21412;-78
2023/01/17 04:18:31;;;;;;;18.33;11.70;;;;;;;4.16;100.00;98222.95;1475429;87;22523;-80
2023/01/17 04:20:57;;;;;;;21.60;11.73;;;;;;;4.18;100.00;98221.01;1468706;87;22361;-81
2023/01/17 04:23:25;;;;;;;17.10;11.73;;;;;;;4.18;100.00;98213.16;1470539;87;22206;-80
2023/01/17 04:25:51;;;;;;;19.43;12.27;;;;;;;4.17;100.00;98208.88;1475468;87;21508;-78
2023/01/17 04:28:17;;;;;;;19.57;13.17;;;;;;;4.14;100.00;98204.78;1453740;89;21419;-80
2023/01/17 04:30:43;;;;;;;16.57;11.67;;;;;;;4.13;100.00;98188.75;1469726;87;21516;-80
2023/01/17 04:33:10;;;;;;;23.97;14.47;;;;;;;4.12;100.00;98181.08;1481227;87;21405;-78
2023/01/17 04:35:36;;;;;;;24.27;12.47;;;;;;;4.13;100.00;98179.59;1471554;87;21604;-84
2023/01/17 04:38:02;;;;;;;20.17;13.53;;;;;;;4.14;100.00;98178.59;1449085;89;21383;-85
2023/01/17 04:40:29;;;;;;;23.67;13.77;;;;;;;4.14;100.00;98177.29;1479734;87;21443;-86
2023/01/17 04:42:58;;;;;;;26.13;15.47;;;;;;;4.15;100.00;98178.14;1476538;87;21412;-81
2023/01/17 04:45:25;;;;;;;25.30;16.27;;;;;;;4.14;100.00;98165.51;1473894;87;21417;-84
2023/01/17 04:47:51;;;;;;;24.60;15.33;;;;;;;4.17;100.00;98177.46;1470800;87;22337;-84
2023/01/17 04:50:17;;;;;;;30.00;17.30;;;;;;;4.17;100.00;98177.00;1471649;87;21560;-83
2023/01/17 04:52:44;;;;;;;24.77;14.87;;;;;;;4.18;100.00;98176.50;1475210;87;21649;-85
2023/01/17 04:55:10;;;;;;;21.93;13.77;;;;;;;4.19;100.00;98182.05;1473044;88;21976;-85
2023/01/17 04:57:36;;;;;;;24.73;13.97;;;;;;;4.21;100.00;98173.55;1473299;87;21516;-85
2023/01/17 05:00:04;;;;;;;30.07;16.30;;;;;;;4.22;100.00;98168.64;1469267;88;21539;-86
2023/01/17 05:02:30;;;;;;;23.67;15.43;;;;;;;4.25;100.00;98165.20;1472177;88;21404;-87
2023/01/17 05:04:56;;;;;;;22.33;14.17;;;;;;;4.30;100.00;98164.72;1471525;88;21444;-86
2023/01/17 05:07:22;;;;;;;24.33;15.70;;;;;;;4.33;100.00;98165.70;1464336;88;21568;-84
2023/01/17 05:09:49;;;;;;;24.70;15.40;;;;;;;4.33;100.00;98156.54;1459585;88;22529;-84
2023/01/17 05:12:15;;;;;;;28.67;15.17;;;;;;;4.35;100.00;98151.16;1473792;88;21583;-87
2023/01/17 05:14:41;;;;;;;21.50;13.87;;;;;;;4.35;100.00;98157.20;1471246;88;21406;-86
2023/01/17 05:17:09;;;;;;;23.57;13.73;;;;;;;4.38;100.00;98152.95;1466561;88;22654;-82
2023/01/17 05:19:35;;;;;;;25.57;14.63;;;;;;;4.42;100.00;98163.91;1462183;88;21501;-87
2023/01/17 05:22:13;;;;;;;19.87;12.00;;;;;;;4.48;100.00;98167.17;1470073;88;21428;-85
2023/01/17 05:24:31;;;;;;;23.17;13.53;;;;;;;4.55;100.00;98166.05;1465765;88;21537;-84
2023/01/17 05:27:01;;;;;;;22.13;12.60;;;;;;;4.61;100.00;98165.39;1469779;88;21436;-83
2023/01/17 05:29:25;;;;;;;24.37;16.00;;;;;;;4.61;100.00;98168.01;1474973;88;21464;-87
2023/01/17 05:31:51;;;;;;;21.73;13.17;;;;;;;4.65;100.00;98177.16;1471640;88;22271;-79
2023/01/17 05:34:17;;;;;;;20.13;13.90;;;;;;;4.64;100.00;98179.47;1470821;88;21390;-81
2023/01/17 05:36:43;;;;;;;17.03;11.47;;;;;;;4.67;100.00;98180.45;1461507;88;21516;-81
2023/01/17 05:39:10;;;;;;;23.33;12.40;;;;;;;4.71;100.00;98184.36;1464882;88;21428;-79
2023/01/17 05:41:36;;;;;;;19.63;12.17;;;;;;;4.76;100.00;98186.00;1450789;88;21471;-79
2023/01/17 05:44:02;;;;;;;15.93;10.93;;;;;;;4.79;100.00;98222.36;1469894;88;21471;-80
2023/01/17 05:46:28;;;;;;;21.00;12.53;;;;;;;4.77;100.00;98204.66;1469104;88;21576;-81
2023/01/17 05:48:55;;;;;;;15.67;10.17;;;;;;;4.75;100.00;98196.17;1430835;88;21450;-79
2023/01/17 05:51:21;;;;;;;15.73;10.60;;;;;;;4.75;100.00;98195.67;1453889;88;22462;-81
2023/01/17 05:53:47;;;;;;;18.30;11.40;;;;;;;4.77;100.00;98183.70;1448421;88;22038;-81
2023/01/17 05:56:13;;;;;;;20.97;11.27;;;;;;;4.79;100.00;98179.61;1465446;88;21620;-81
2023/01/17 05:58:40;;;;;;;15.97;10.70;;;;;;;4.81;100.00;98182.40;1468459;88;21427;-81
2023/01/17 06:01:06;;;;;;;23.23;13.37;;;;;;;4.88;100.00;98174.68;1466901;88;21463;-81
2023/01/17 06:03:32;;;;;;;25.53;16.40;;;;;;;4.91;100.00;98179.59;1465963;88;21479;-81
2023/01/17 06:05:58;;;;;;;20.30;14.13;;;;;;;4.96;100.00;98179.42;1466921;88;21398;-81
2023/01/17 06:08:24;;;;;;;19.97;13.10;;;;;;;4.96;100.00;98181.23;1462880;88;22285;-81
2023/01/17 06:10:50;;;;;;;15.40;10.90;;;;;;;4.97;100.00;98187.59;1468677;88;21521;-81
2023/01/17 06:13:20;;;;;;;15.53;10.53;;;;;;;4.97;100.00;98181.05;1465306;88;22590;-82
2023/01/17 06:15:45;;;;;;;14.47;9.40;;;;;;;4.96;100.00;98167.62;1472603;88;21441;-84
2023/01/17 06:18:15;;;;;;;18.37;11.60;;;;;;;4.98;100.00;98157.80;1473113;88;21523;-83
2023/01/17 06:20:42;;;;;;;13.80;9.63;;;;;;;5.02;100.00;98156.15;1468003;87;21575;-85
2023/01/17 06:23:12;;;;;;;13.57;9.60;;;;;;;5.06;100.00;98163.99;1466622;88;22435;-86
2023/01/17 06:25:45;;;;;;;12.75;7.87;;;;;;;5.10;100.00;98158.25;1472279;88;21434;-84
2023/01/17 06:28:15;;;;;;;15.83;9.83;;;;;;;5.16;100.00;98151.52;1473119;88;21479;-83
2023/01/17 06:30:42;;;;;;;13.53;9.57;;;;;;;5.21;100.00;98155.78;1464043;88;21384;-81
2023/01/17 06:33:09;;;;;;;14.77;9.97;;;;;;;5.25;100.00;98155.75;1467844;88;21457;-85
2023/01/17 06:35:37;;;;;;;19.20;11.43;;;;;;;5.29;100.00;98155.72;1472054;88;21518;-83
2023/01/17 06:38:03;;;;;;;13.77;9.40;;;;;;;5.30;100.00;98150.82;1468141;88;21644;-86
2023/01/17 06:40:30;;;;;;;13.23;8.30;;;;;;;5.33;100.00;98162.28;1470105;88;21457;-82
2023/01/17 06:43:01;;;;;;;15.07;8.77;;;;;;;5.34;100.00;98162.59;1467299;88;21412;-82
2023/01/17 06:45:29;;;;;;;14.33;7.73;;;;;;;5.34;100.00;98162.59;1467871;88;21531;-83
2023/01/17 06:47:58;;;;;;;10.90;7.03;;;;;;;5.37;100.00;98165.38;1468466;88;22338;-82
2023/01/17 06:50:24;;;;;;;14.30;8.07;;;;;;;5.38;100.00;98161.29;1464573;88;21413;-84
2023/01/17 06:53:02;;;;;;;11.07;6.67;;;;;;;5.42;100.00;98163.88;1465647;88;21479;-82
2023/01/17 06:55:32;;;;;;;9.53;7.13;;;;;;;5.49;100.00;98172.38;1476179;88;21413;-82
2023/01/17 06:57:59;;;;;;;8.43;5.60;;;;;;;5.51;100.00;98164.67;1387064;88;21473;-80
2023/01/17 07:00:27;;;;;;;7.67;5.43;;;;;;;5.54;100.00;98172.70;1385132;88;21355;-79
2023/01/17 07:02:54;;;;;;;9.50;6.40;;;;;;;5.58;100.00;98175.29;1546834;88;21477;-81
2023/01/17 07:05:20;;;;;;;8.43;5.53;;;;;;;5.64;100.00;98170.70;1388058;88;22004;-82
2023/01/17 07:07:47;;;;;;;6.93;5.13;;;;;;;5.78;100.00;98186.19;1387121;88;21487;-81
2023/01/17 07:10:14;;;;;;;7.67;5.60;;;;;;;5.88;100.00;98190.25;1393480;88;22250;-79
2023/01/17 07:12:41;;;;;;;8.63;6.43;;;;;;;5.96;100.00;98197.80;1369044;94;21524;-80
2023/01/17 07:15:09;;;;;;;8.77;6.83;;;;;;;6.02;100.00;98180.05;1390067;88;22380;-79
2023/01/17 07:17:35;;;;;;;11.67;7.93;;;;;;;6.07;100.00;98180.31;1387165;88;21369;-80
2023/01/17 07:20:02;;;;;;;8.90;6.30;;;;;;;6.08;100.00;98181.97;1391557;88;22372;-80
2023/01/17 07:22:28;;;;;;;11.50;6.73;;;;;;;6.07;100.00;98186.41;1388217;88;22280;-83
2023/01/17 07:24:57;;;;;;;8.93;6.37;;;;;;;6.05;100.00;98180.50;1393091;88;21369;-83
2023/01/17 07:27:23;;;;;;;8.37;6.70;;;;;;;6.04;100.00;98180.66;1525810;88;21370;-80
2023/01/17 07:29:49;;;;;;;7.67;5.83;;;;;;;6.07;100.00;98199.55;1388529;89;21376;-83
2023/01/17 07:32:15;;;;;;;10.77;7.73;;;;;;;6.09;100.00;98211.98;1392302;89;21338;-82
2023/01/17 07:37:08;;;;;;;9.73;7.07;;;;;;;6.13;100.00;98215.11;1493222;85;28044;-85
2023/01/17 07:39:36;;;;;;;10.63;8.13;;;;;;;6.10;100.00;98211.52;1475370;87;21509;-81
2023/01/17 07:42:02;;;;;;;9.80;7.67;;;;;;;6.13;100.00;98228.23;1473342;87;21612;-87
2023/01/17 07:44:29;;;;;;;11.63;8.10;;;;;;;6.15;100.00;98232.80;1479078;87;22473;-87
2023/01/17 07:46:55;;;;;;;10.93;8.40;;;;;;;6.17;100.00;98234.77;1472726;87;21538;-88
2023/01/17 07:49:21;;;;;;;9.03;6.77;;;;;;;6.18;100.00;98241.64;1470141;87;21449;-90
2023/01/17 07:52:02;;;;;;;11.40;7.90;;;;;;;6.23;100.00;98245.08;1469491;87;21598;-85
2023/01/17 07:54:29;;;;;;;8.87;6.63;;;;;;;6.27;100.00;98249.83;1469711;87;21515;-88
2023/01/17 07:57:03;;;;;;;8.30;7.13;;;;;;;6.36;100.00;98247.97;1468924;87;21979;-87
2023/01/17 07:59:53;;;;;;;10.63;7.47;;;;;;;6.41;100.00;98248.74;1532420;87;22069;-86
2023/01/17 08:02:22;;;;;;;10.57;7.33;;;;;;;6.39;100.00;98252.03;1399631;92;21735;-88
2023/01/17 08:04:49;;;;;;;10.80;7.47;;;;;;;6.44;100.00;98254.45;1397158;92;21535;-86
2023/01/17 08:07:15;;;;;;;16.00;6.83;;;;;;;6.44;100.00;98258.91;1394250;92;21489;-87
2023/01/17 08:09:43;;;;;;;10.57;6.63;;;;;;;6.44;100.00;98262.34;1401253;92;21541;-88
2023/01/17 08:12:10;;;;;;;8.70;6.57;;;;;;;6.49;100.00;98273.66;1395422;92;22118;-87
2023/01/17 08:14:36;;;;;;;10.00;7.53;;;;;;;6.58;100.00;98277.05;1402160;92;21459;-90
2023/01/17 08:17:14;;;;;;;10.23;7.27;;;;;;;6.63;100.00;98278.66;1404716;92;21430;-90
2023/01/17 08:19:41;;;;;;;8.73;6.27;;;;;;;6.69;100.00;98282.72;1398304;92;22706;-86
2023/01/17 08:22:07;;;;;;;9.07;6.57;;;;;;;6.76;100.00;98284.98;1401149;92;21641;-89
2023/01/17 08:24:34;;;;;;;11.67;7.40;;;;;;;6.84;100.00;98288.53;1396710;93;22553;-89
2023/01/17 08:27:00;;;;;;;14.50;7.90;;;;;;;6.86;99.91;98279.98;1389008;93;21531;-88
2023/01/17 08:29:26;;;;;;;13.00;7.20;;;;;;;6.93;99.97;98290.09;1408118;93;21530;-89
2023/01/17 08:31:53;;;;;;;16.57;7.73;;;;;;;7.00;99.71;98292.36;1406916;93;22433;-90
2023/01/17 08:34:19;;;;;;;8.73;5.50;;;;;;;7.10;99.97;98300.81;1405616;93;21435;-90
2023/01/17 08:36:46;;;;;;;9.63;6.03;;;;;;;7.20;98.80;98308.47;1397808;92;21599;-86
2023/01/17 08:39:13;;;;;;;18.10;9.37;;;;;;;7.23;98.08;98301.03;1406342;91;22522;-84
2023/01/17 08:41:44;;;;;;;8.23;6.80;;;;;;;7.34;97.89;98310.83;1477060;88;21494;-86
2023/01/17 08:44:08;;;;;;;10.87;6.93;;;;;;;7.33;96.11;98313.93;1483478;88;21487;-86
2023/01/17 08:46:38;;;;;;;9.47;7.07;;;;;;;7.38;96.06;98321.30;1488012;88;21635;-87
2023/01/17 08:49:04;;;;;;;8.80;6.28;;;;;;;7.38;96.15;98333.14;1480709;88;21693;-85
2023/01/17 08:51:31;;;;;;;11.00;6.97;;;;;;;7.46;95.46;98324.67;1478694;88;21457;-86
2023/01/17 08:53:58;;;;;;;12.60;7.20;;;;;;;7.51;95.07;98325.47;1481164;88;22307;-85
2023/01/17 08:56:25;;;;;;;8.40;6.07;;;;;;;7.54;95.77;98326.89;1478564;88;21663;-86
2023/01/17 08:58:53;;;;;;;8.27;6.13;;;;;;;7.52;96.02;98327.09;1476262;88;21463;-85
2023/01/17 09:01:19;;;;;;;9.80;6.80;;;;;;;7.47;95.08;98329.44;1479488;88;22205;-84
2023/01/17 09:03:50;;;;;;;8.10;5.97;;;;;;;7.43;95.62;98331.61;1480050;88;21706;-85
2023/01/17 09:06:17;;;;;;;7.60;5.80;;;;;;;7.37;95.14;98331.52;1482036;88;21812;-85
2023/01/17 09:08:45;;;;;;;10.40;7.10;;;;;;;7.47;95.20;98329.44;1480628;88;21420;-84
2023/01/17 09:11:15;;;;;;;16.93;9.83;;;;;;;7.55;94.76;98339.89;1474398;88;21515;-86
2023/01/17 09:13:43;;;;;;;12.68;7.37;;;;;;;7.71;95.59;98334.14;1477510;88;21457;-85
2023/01/17 09:16:09;;;;;;;7.50;5.77;;;;;;;7.77;93.67;98343.47;1479972;88;21449;-83
2023/01/17 09:18:36;;;;;;;8.53;6.47;;;;;;;7.74;92.09;98351.73;1481117;88;21390;-85
2023/01/17 09:21:16;;;;;;;7.97;5.97;;;;;;;7.83;91.67;98343.25;1478612;88;22360;-83
2023/01/17 09:23:44;;;;;;;12.30;9.00;;;;;;;7.86;90.99;98353.42;1480421;88;21567;-85
2023/01/17 09:26:26;;;;;;;8.07;5.23;;;;;;;7.97;91.57;98345.08;1468951;88;21449;-83
2023/01/17 09:28:52;;;;;;;13.00;9.53;;;;;;;7.98;89.17;98336.16;1477386;88;21465;-84
2023/01/17 09:31:28;;;;;;;7.10;5.20;;;;;;;7.98;89.26;98340.11;1477961;88;22536;-83
2023/01/17 09:33:56;;;;;;;8.27;6.30;;;;;;;7.94;89.26;98327.47;1474191;88;21450;-84
2023/01/17 09:36:30;;;;;;;7.33;5.67;;;;;;;7.94;89.42;98340.17;1405559;88;21406;-83
2023/01/17 09:38:58;;;;;;;10.50;6.83;;;;;;;7.93;89.14;98348.24;1402450;88;21503;-82
2023/01/17 09:41:32;;;;;;;7.67;6.33;;;;;;;7.82;88.33;98359.52;1396889;88;21325;-84
2023/01/17 09:44:27;;;;;;;9.13;6.17;;;;;;;7.75;88.71;98358.62;1548368;88;21584;-83
2023/01/17 09:46:59;;;;;;;9.77;5.87;;;;;;;7.66;88.24;98367.11;1556179;88;21392;-84
2023/01/17 09:49:39;;;;;;;8.30;6.07;;;;;;;7.62;88.94;98357.94;1473155;88;21501;-82
2023/01/17 09:52:08;;;;;;;8.15;5.42;;;;;;;7.61;88.39;98347.07;1472277;88;21502;-84
2023/01/17 09:54:39;;;;;;;7.00;4.50;;;;;;;7.67;88.20;98358.20;1474073;88;21605;-85
2023/01/17 09:57:23;;;;;;;6.83;4.83;;;;;;;7.72;87.88;98348.45;1399724;88;22324;-80
2023/01/17 10:04:32;;;;;;;6.33;4.90;;;;;;;7.77;86.98;98354.48;1483905;93;21462;-83
2023/01/17 10:07:26;;;;;;;7.23;4.50;;;;;;;8.79;83.00;98350.14;1431181;93;21419;-82
2023/01/17 10:10:04;;;;;;;9.57;5.07;;;;;;;8.54;81.20;98357.56;1484118;92;21333;-83
2023/01/17 10:13:06;;;;;;;7.37;5.50;;;;;;;8.43;81.35;98346.20;1484129;93;21663;-82
2023/01/17 10:15:57;;;;;;;8.63;5.30;;;;;;;8.31;81.76;98352.89;1380866;95;21553;-84
2023/01/17 10:18:32;;;;;;;5.47;4.00;;;;;;;8.25;82.41;98347.05;1408106;93;21560;-84
2023/01/17 10:21:22;;;;;;;6.40;4.27;;;;;;;8.12;81.02;98349.83;1407542;93;21546;-84
2023/01/17 10:24:15;;;;;;;6.07;4.90;;;;;;;8.23;80.00;98342.45;1405549;93;22625;-87
2023/01/17 10:26:47;;;;;;;5.73;4.07;;;;;;;8.76;79.90;98348.39;1408500;93;21634;-83
2023/01/17 10:29:19;;;;;;;5.47;4.43;;;;;;;8.87;76.59;98336.03;1406114;93;21664;-83
2023/01/17 10:31:59;;;;;;;8.63;4.73;;;;;;;9.33;75.01;98340.92;1405504;93;21428;-84
2023/01/17 10:34:45;;;;;;;6.80;5.17;;;;;;;9.29;75.68;98343.61;1404325;93;21450;-83
2023/01/17 10:37:25;;;;;;;6.97;4.47;;;;;;;9.17;75.77;98330.62;1407468;92;21724;-84
2023/01/17 10:39:55;;;;;;;7.80;5.08;;;;;;;9.15;76.15;98325.55;1408755;91;21518;-84
2023/01/17 10:42:39;;;;;;;6.27;4.33;;;;;;;9.20;75.80;98336.84;1431400;91;21583;-81
2023/01/17 10:45:27;;;;;;;7.93;4.10;;;;;;;9.29;75.51;98337.01;1481846;88;21501;-83
2023/01/17 10:47:56;;;;;;;7.97;4.57;;;;;;;9.16;75.76;98326.36;1482594;88;21740;-85
2023/01/17 10:50:24;;;;;;;4.53;3.27;;;;;;;8.87;75.35;98336.03;1478308;88;21641;-86
2023/01/17 10:52:57;;;;;;;6.33;3.67;;;;;;;8.61;76.01;98327.84;1481509;88;21457;-85
2023/01/17 10:55:38;;;;;;;7.30;3.47;;;;;;;8.30;76.85;98331.00;1476435;88;21515;-83
2023/01/17 10:58:11;;;;;;;4.17;2.98;;;;;;;8.14;78.14;98332.03;1477751;88;21939;-81
2023/01/17 11:00:44;;;;;;;7.30;4.70;;;;;;;8.15;78.81;98346.02;1480479;88;21670;-82
2023/01/17 11:03:15;;;;;;;6.17;3.73;;;;;;;7.98;78.78;98327.45;1463868;88;22463;-83
2023/01/17 11:05:42;;;;;;;5.25;4.05;;;;;;;7.93;79.97;98321.39;1480911;88;21546;-83
2023/01/17 11:08:12;;;;;;;5.37;3.33;;;;;;;7.91;81.15;98328.17;1481142;88;21450;-84
2023/01/17 11:10:52;;;;;;;4.63;2.73;;;;;;;7.86;79.18;98319.19;1481002;88;21575;-83
2023/01/17 11:13:35;;;;;;;5.93;2.87;;;;;;;7.75;79.42;98328.84;1456126;88;21516;-84
2023/01/17 11:16:08;;;;;;;6.37;4.20;;;;;;;7.72;79.82;98331.34;1476628;88;21678;-82
2023/01/17 11:18:38;;;;;;;5.77;3.70;;;;;;;7.66;80.34;98335.51;1478476;88;21538;-82
2023/01/17 11:21:22;;;;;;;5.77;3.40;;;;;;;7.69;81.09;98340.41;1479238;88;21553;-81
2023/01/17 11:24:00;;;;;;;6.57;3.93;;;;;;;7.68;80.00;98332.68;1481384;88;21547;-83
2023/01/17 11:26:27;;;;;;;5.67;3.33;;;;;;;7.69;80.00;98343.05;1478254;88;21693;-83
2023/01/17 11:29:16;;;;;;;;;;;;;;;7.64;79.34;98338.81;1457569;88;21631;-83
2023/01/17 11:31:42;;;;;;;6.77;3.00;;;;;;;7.59;80.05;98342.47;1478451;88;20437;-85
2023/01/17 11:34:19;;;;;;;9.43;3.47;;;;;;;7.54;80.97;98339.59;1473577;88;21593;-81
2023/01/17 11:36:45;;;;;;;8.07;4.57;;;;;;;7.56;81.15;98336.75;1478591;88;22172;-83
2023/01/17 11:39:29;;;;;;;8.33;3.83;;;;;;;7.59;82.20;98332.45;1473113;88;21561;-82
2023/01/17 11:41:53;;;;;;;7.20;3.95;;;;;;;7.61;82.39;98331.78;1470854;88;21708;-83
2023/01/17 11:44:32;;;;;;;7.13;4.60;;;;;;;7.59;82.78;98329.31;1467969;88;21434;-82
2023/01/17 11:47:17;;;;;;;5.23;3.53;;;;;;;7.65;83.34;98322.52;1477303;88;21473;-83
2023/01/17 11:49:48;;;;;;;7.13;3.30;;;;;;;7.66;82.41;98317.08;1449420;90;21655;-84
2023/01/17 11:52:37;;;;;;;4.60;2.93;;;;;;;7.65;79.87;98315.92;1467699;88;21733;-83
2023/01/17 11:55:02;;;;;;;6.03;3.20;;;;;;;7.69;79.34;98311.95;1520031;90;21598;-86
2023/01/17 11:57:34;;;;;;;7.23;3.57;;;;;;;7.68;78.91;98319.04;1398530;88;22184;-85
2023/01/17 12:00:26;;;;;;;5.90;3.40;;;;;;;7.72;79.98;98326.58;1394901;88;21362;-82
2023/01/17 12:03:41;;;;;;;8.80;4.00;;;;;;;7.75;80.58;98320.95;1558951;88;21355;-82
2023/01/17 12:06:12;;;;;;;5.83;3.87;;;;;;;7.71;80.74;98326.23;1400659;88;21422;-84
2023/01/17 12:09:08;;;;;;;7.87;4.67;;;;;;;7.75;80.72;98317.00;1552346;88;21392;-84
2023/01/17 12:15:18;;;;;;;;;;;;;;;7.77;80.45;98318.93;1397816;88;21626;-83
2023/01/17 12:18:09;;;;;;;5.73;3.83;;;;;;;7.76;80.85;98326.52;1397279;88;20746;-84
2023/01/17 12:21:05;;;;;;;8.57;3.37;;;;;;;7.76;79.33;98317.30;1553010;88;21384;-84
2023/01/17 12:23:55;;;;;;;6.87;3.83;;;;;;;7.87;78.86;98318.17;1454026;88;22940;-83
2023/01/17 12:26:55;;;;;;;5.73;3.10;;;;;;;7.87;79.39;98322.94;1474746;88;22273;-84
2023/01/17 12:29:44;;;;;;;4.80;2.70;;;;;;;7.85;79.52;98320.16;1474329;88;21649;-83
2023/01/17 12:32:48;;;;;;;4.40;3.03;;;;;;;7.86;79.28;98321.81;1475635;88;21449;-86
2023/01/17 12:35:37;;;;;;;6.13;3.83;;;;;;;7.91;79.42;98327.33;1472942;88;21479;-85
2023/01/17 12:38:14;;;;;;;11.83;5.30;;;;;;;7.87;80.14;98318.98;1560546;88;21612;-83
2023/01/17 12:40:55;;;;;;;6.40;4.07;;;;;;;7.94;80.37;98332.27;1555813;88;21621;-83
2023/01/17 12:43:32;;;;;;;8.23;3.85;;;;;;;7.90;79.44;98328.34;1402224;89;22406;-85
2023/01/17 12:46:02;;;;;;;4.83;3.50;;;;;;;7.86;79.50;98329.22;1566279;88;21302;-82
2023/01/17 12:48:34;;;;;;;3.55;2.83;;;;;;;7.85;79.55;98326.75;1564593;88;21538;-85
2023/01/17 12:51:17;;;;;;;7.83;4.37;;;;;;;7.87;80.09;98347.14;1400735;89;21531;-83
2023/01/17 12:54:11;;;;;;;5.83;3.47;;;;;;;7.87;80.30;98347.14;1565452;88;21325;-86
2023/01/17 12:56:53;;;;;;;4.93;3.40;;;;;;;7.88;80.37;98344.81;1449003;88;22457;-83
2023/01/17 12:59:52;;;;;;;5.53;3.97;;;;;;;7.88;80.12;98344.81;1565443;88;21280;-84
2023/01/17 13:02:40;;;;;;;6.77;4.00;;;;;;;7.88;80.48;98344.34;1401408;88;22420;-82
2023/01/17 13:05:14;;;;;;;6.90;3.97;;;;;;;7.88;80.66;98321.95;1564909;88;21347;-85
2023/01/17 13:07:49;;;;;;;3.83;3.00;;;;;;;7.88;80.33;98343.50;1400288;89;22382;-83
2023/01/17 13:10:30;;;;;;;7.13;4.07;;;;;;;7.87;80.77;98355.05;1403270;88;21383;-84
2023/01/17 13:12:59;;;;;;;;;;;;;;;7.86;80.20;98350.79;1568218;88;21470;-84
2023/01/17 13:15:29;;;;;;;6.77;4.30;;;;;;;7.85;80.38;98349.13;1533018;88;20761;-83
2023/01/17 13:18:16;;;;;;;9.48;4.92;;;;;;;7.89;81.03;98360.45;1564501;88;21332;-83
2023/01/17 13:20:57;;;;;;;8.07;4.13;;;;;;;7.90;80.54;98357.31;1565452;88;21348;-84
2023/01/17 13:23:31;;;;;;;5.37;3.40;;;;;;;7.97;80.45;98366.62;1564824;88;21531;-84
2023/01/17 13:25:59;;;;;;;9.83;3.87;;;;;;;7.98;78.61;98363.82;1401987;88;21332;-84
2023/01/17 13:28:36;;;;;;;9.40;4.43;;;;;;;8.04;78.10;98363.59;1407293;88;21458;-85